createdAt,value
2023-03-08T00:00:57.941Z,60.96
2023-03-08T00:06:23.427Z,61.26
2023-03-08T00:11:48.080Z,58.45
2023-03-08T00:17:13.422Z,59.26
2023-03-08T00:22:41.023Z,62.34
2023-03-08T00:28:04.638Z,68.67
2023-03-08T00:33:29.431Z,64.59
2023-03-08T00:38:53.942Z,62.86
2023-03-08T00:44:18.729Z,60.67
2023-03-08T00:49:42.937Z,58.70
2023-03-08T00:55:07.032Z,62.49
2023-03-08T01:00:31.993Z,65.23
2023-03-08T01:05:59.729Z,62.80
2023-03-08T01:11:27.256Z,61.79
2023-03-08T01:16:51.525Z,61.93
2023-03-08T01:22:15.778Z,61.59
2023-03-08T01:27:39.548Z,61.67
2023-03-08T01:33:03.901Z,61.61
2023-03-08T01:38:27.934Z,61.32
2023-03-08T01:43:54.354Z,61.00
2023-03-08T01:49:33.679Z,60.80
2023-03-08T01:55:04.005Z,60.58
2023-03-08T02:00:27.854Z,60.28
2023-03-08T02:05:51.912Z,60.20
2023-03-08T02:11:21.255Z,60.20
2023-03-08T02:16:47.455Z,60.12
2023-03-08T02:22:14.407Z,60.27
2023-03-08T02:27:38.478Z,60.52
2023-03-08T02:33:02.470Z,60.79
2023-03-08T02:38:26.063Z,61.40
2023-03-08T02:43:49.737Z,61.80
2023-03-08T02:49:14.324Z,61.62
2023-03-08T02:54:39.022Z,61.61
2023-03-08T03:00:05.864Z,61.58
2023-03-08T03:05:30.303Z,61.55
2023-03-08T03:10:55.668Z,61.41
2023-03-08T03:16:19.661Z,61.45
2023-03-08T03:21:43.713Z,61.75
2023-03-08T03:27:08.408Z,61.66
2023-03-08T03:32:33.793Z,61.66
2023-03-08T03:37:57.772Z,61.67
2023-03-08T03:43:22.916Z,61.63
2023-03-08T03:48:47.777Z,61.68
2023-03-08T03:54:13.813Z,61.26
2023-03-08T03:59:39.175Z,61.11
2023-03-08T04:05:03.998Z,61.35
2023-03-08T04:10:28.528Z,61.35
2023-03-08T04:15:53.298Z,61.07
2023-03-08T04:21:17.412Z,60.84
2023-03-08T04:26:41.802Z,60.84
2023-03-08T04:32:09.851Z,60.87
2023-03-08T04:37:47.741Z,60.80
2023-03-08T04:43:14.164Z,60.63
2023-03-08T04:48:38.694Z,60.49
2023-03-08T04:54:05.143Z,60.20
2023-03-08T04:59:31.044Z,59.85
2023-03-08T05:04:57.803Z,59.79
2023-03-08T05:10:22.068Z,59.84
2023-03-08T05:15:47.270Z,59.94
2023-03-08T05:21:14.865Z,59.81
2023-03-08T05:26:39.910Z,59.79
2023-03-08T05:32:06.961Z,59.63
2023-03-08T05:37:31.903Z,57.98
2023-03-08T05:42:58.423Z,57.55
2023-03-08T05:48:24.030Z,65.51
2023-03-08T05:53:48.072Z,65.86
2023-03-08T05:59:13.857Z,62.96
2023-03-08T06:04:40.220Z,61.64
2023-03-08T06:10:05.513Z,59.63
2023-03-08T06:15:29.574Z,54.80
2023-03-08T06:21:01.996Z,56.80
2023-03-08T06:26:27.270Z,60.84
2023-03-08T06:31:51.798Z,67.95
2023-03-08T06:37:17.931Z,67.51
2023-03-08T06:42:42.540Z,64.49
2023-03-08T06:48:09.053Z,61.46
2023-03-08T06:53:36.535Z,61.00
2023-03-08T06:59:01.957Z,59.71
2023-03-08T07:04:25.940Z,57.69
2023-03-08T07:09:50.648Z,64.18
2023-03-08T07:15:17.055Z,64.91
2023-03-08T07:20:41.127Z,62.21
2023-03-08T07:26:09.621Z,60.52
2023-03-08T07:31:36.599Z,59.92
2023-03-08T07:37:00.629Z,59.04
2023-03-08T07:42:25.032Z,62.22
2023-03-08T07:47:53.196Z,63.69
2023-03-08T07:53:17.135Z,61.22
2023-03-08T07:58:41.394Z,60.06
2023-03-08T08:04:06.322Z,59.27
2023-03-08T08:09:30.874Z,60.76
2023-03-08T08:14:55.389Z,65.35
2023-03-08T08:20:19.694Z,63.62
2023-03-08T08:25:46.953Z,60.61
2023-03-08T08:31:14.490Z,58.29
2023-03-08T08:36:38.523Z,60.72
2023-03-08T08:42:04.037Z,65.03
2023-03-08T08:47:30.235Z,63.37
2023-03-08T08:52:54.533Z,60.14
2023-03-08T08:58:18.608Z,58.55
2023-03-08T09:03:42.929Z,62.32
2023-03-08T09:09:07.618Z,64.07
2023-03-08T09:14:31.803Z,61.15
2023-03-08T09:19:56.856Z,57.66
2023-03-08T09:25:24.491Z,55.25
2023-03-08T09:30:48.506Z,56.94
2023-03-08T09:36:12.944Z,58.49
2023-03-08T09:41:46.211Z,63.20
2023-03-08T09:47:43.068Z,68.30
2023-03-08T09:53:27.519Z,63.75
2023-03-08T09:59:00.977Z,60.44
2023-03-08T10:04:47.375Z,53.70
2023-03-08T10:10:31.201Z,56.55
2023-03-08T10:16:04.442Z,56.43
2023-03-08T10:21:33.241Z,57.00
2023-03-08T10:27:34.113Z,60.92
2023-03-08T10:33:01.009Z,70.72
2023-03-08T10:38:29.040Z,68.42
2023-03-08T10:43:56.078Z,63.48
2023-03-08T10:49:23.599Z,60.40
2023-03-08T10:54:51.618Z,52.77
2023-03-08T11:00:36.943Z,49.34
2023-03-08T11:06:05.270Z,50.17
2023-03-08T11:11:29.281Z,52.06
2023-03-08T11:17:07.245Z,54.11
2023-03-08T11:22:55.709Z,55.43
2023-03-08T11:28:39.705Z,56.57
2023-03-08T11:34:29.686Z,57.77
2023-03-08T11:40:15.506Z,58.85
2023-03-08T11:46:06.916Z,59.88
2023-03-08T11:52:00.276Z,60.23
2023-03-08T11:57:26.769Z,71.46
2023-03-08T12:02:51.681Z,76.48
2023-03-08T12:08:24.850Z,70.92
2023-03-08T12:13:55.584Z,66.40
2023-03-08T12:19:46.572Z,63.94
2023-03-08T12:25:33.755Z,61.67
2023-03-08T12:31:04.114Z,54.52
2023-03-08T12:36:39.764Z,51.15
2023-03-08T12:42:10.435Z,54.81
2023-03-08T12:47:34.979Z,57.80
2023-03-08T12:52:59.184Z,60.02
2023-03-08T12:58:23.167Z,68.00
2023-03-08T13:03:47.156Z,71.53
2023-03-08T13:09:43.407Z,68.43
2023-03-08T13:15:14.270Z,64.61
2023-03-08T13:20:42.421Z,63.41
2023-03-08T13:26:49.303Z,61.56
2023-03-08T13:32:20.142Z,57.50
2023-03-08T13:37:52.908Z,53.86
2023-03-08T13:43:16.930Z,54.36
2023-03-08T13:48:45.042Z,57.91
2023-03-08T13:54:16.810Z,59.30
2023-03-08T13:59:49.474Z,68.89
2023-03-08T14:05:18.228Z,71.41
2023-03-08T14:10:45.987Z,69.98
2023-03-08T14:16:24.999Z,66.32
2023-03-08T14:21:55.199Z,64.51
2023-03-08T14:27:19.858Z,62.96
2023-03-08T14:33:02.375Z,61.67
2023-03-08T14:38:31.743Z,60.99
2023-03-08T14:43:55.573Z,56.16
2023-03-08T14:49:24.223Z,52.47
2023-03-08T14:54:49.380Z,53.60
2023-03-08T15:00:16.020Z,56.29
2023-03-08T15:05:40.408Z,60.01
2023-03-08T15:11:04.532Z,69.05
2023-03-08T15:16:28.609Z,71.89
2023-03-08T15:21:53.477Z,69.11
2023-03-08T15:27:18.098Z,67.37
2023-03-08T15:32:43.094Z,65.06
2023-03-08T15:38:08.271Z,63.81
2023-03-08T15:43:33.700Z,61.60
2023-03-08T15:48:58.397Z,60.22
2023-03-08T15:54:22.529Z,54.48
2023-03-08T15:59:47.058Z,51.35
2023-03-08T16:05:14.100Z,52.40
2023-03-08T16:10:41.605Z,54.37
2023-03-08T16:16:07.017Z,57.44
2023-03-08T16:21:31.385Z,59.20
2023-03-08T16:26:56.120Z,68.99
2023-03-08T16:32:20.971Z,74.49
2023-03-08T16:37:45.264Z,70.94
2023-03-08T16:43:09.141Z,68.92
2023-03-08T16:48:33.739Z,65.82
2023-03-08T16:53:58.398Z,64.34
2023-03-08T16:59:22.768Z,63.22
2023-03-08T17:04:49.087Z,62.21
2023-03-08T17:10:13.630Z,61.74
2023-03-08T17:15:43.324Z,60.92
2023-03-08T17:21:07.760Z,60.28
2023-03-08T17:26:31.681Z,60.16
2023-03-08T17:31:57.078Z,56.23
2023-03-08T17:37:23.532Z,52.52
2023-03-08T17:42:48.462Z,55.25
2023-03-08T17:48:12.383Z,59.91
2023-03-08T17:53:38.028Z,68.99
2023-03-08T17:59:03.098Z,70.80
2023-03-08T18:04:26.965Z,68.99
2023-03-08T18:09:52.226Z,66.96
2023-03-08T18:15:16.638Z,64.96
2023-03-08T18:20:41.031Z,63.46
2023-03-08T18:26:05.269Z,62.20
2023-03-08T18:31:31.294Z,61.20
2023-03-08T18:36:59.094Z,60.55
2023-03-08T18:42:24.506Z,59.95
2023-03-08T18:47:51.173Z,54.02
2023-03-08T18:53:18.870Z,50.64
2023-03-08T18:58:43.064Z,51.74
2023-03-08T19:04:08.427Z,53.63
2023-03-08T19:09:32.406Z,56.80
2023-03-08T19:14:57.008Z,58.79
2023-03-08T19:20:21.396Z,60.64
2023-03-08T19:26:04.058Z,71.78
2023-03-08T19:31:29.085Z,75.32
2023-03-08T19:36:53.772Z,71.84
2023-03-08T19:42:18.051Z,68.53
2023-03-08T19:47:43.617Z,66.12
2023-03-08T19:53:09.421Z,64.20
2023-03-08T19:58:34.416Z,62.77
2023-03-08T20:03:58.852Z,61.64
2023-03-08T20:09:24.146Z,60.73
2023-03-08T20:14:48.653Z,59.69
2023-03-08T20:20:14.926Z,53.78
2023-03-08T20:25:42.999Z,51.28
2023-03-08T20:31:11.592Z,52.65
2023-03-08T20:36:36.370Z,54.45
2023-03-08T20:42:00.904Z,56.86
2023-03-08T20:47:24.895Z,59.14
2023-03-08T20:52:50.013Z,69.53
2023-03-08T20:58:14.931Z,73.98
2023-03-08T21:03:39.193Z,72.00
2023-03-08T21:09:03.423Z,68.31
2023-03-08T21:14:29.328Z,65.65
2023-03-08T21:19:54.481Z,64.55
2023-03-08T21:25:19.443Z,63.34
2023-03-08T21:30:44.475Z,61.46
2023-03-08T21:36:09.026Z,58.11
2023-03-08T21:41:36.044Z,52.62
2023-03-08T21:47:00.395Z,53.20
2023-03-08T21:52:24.963Z,56.76
2023-03-08T21:57:49.979Z,58.65
2023-03-08T22:03:14.388Z,60.95
2023-03-08T22:08:39.052Z,71.83
2023-03-08T22:14:02.906Z,76.06
2023-03-08T22:19:27.313Z,72.46
2023-03-08T22:24:51.784Z,68.31
2023-03-08T22:30:17.245Z,65.44
2023-03-08T22:35:48.718Z,63.61
2023-03-08T22:41:15.185Z,61.61
2023-03-08T22:46:39.422Z,59.97
2023-03-08T22:52:04.916Z,54.01
2023-03-08T22:57:29.020Z,51.31
2023-03-08T23:02:57.958Z,53.20
2023-03-08T23:08:24.277Z,55.44
2023-03-08T23:13:48.838Z,57.71
2023-03-08T23:19:16.193Z,60.44
2023-03-08T23:25:23.500Z,72.02
2023-03-08T23:30:48.312Z,75.26
2023-03-08T23:36:14.409Z,72.00
2023-03-08T23:41:40.987Z,68.43
2023-03-08T23:47:05.864Z,65.53
2023-03-08T23:52:29.817Z,63.36
2023-03-08T23:57:53.656Z,62.00
